Time;durP1;ratioP1;P1;durP2;ratioP2;P2;SDS_P1;SDS_P2;PMS_P1;PMS_P2;Temp;Humidity;BMP_temperature;BMP_pressure;BME280_temperature;BME280_humidity;BME280_pressure;Samples;Min_cycle;Max_cycle;Signal;HPM_P1;HPM_P2
2023/03/23 00:01:21;;;;;;;2.10;1.25;;;;;;;9.68;56.13;99802.81;5304890;26;33774;-85
2023/03/23 00:03:50;;;;;;;5.68;2.28;;;;;;;9.62;56.23;99805.72;5268976;26;32975;-85
2023/03/23 00:06:18;;;;;;;5.40;1.95;;;;;;;9.55;56.45;99807.75;5288068;26;33977;-86
2023/03/23 00:08:47;;;;;;;2.42;1.60;;;;;;;9.69;55.90;99801.94;5288767;26;33563;-85
2023/03/23 00:11:31;;;;;;;1.92;1.65;;;;;;;9.66;55.93;99799.41;5306853;26;33965;-85
2023/03/23 00:14:02;;;;;;;1.73;1.60;;;;;;;9.70;55.93;99803.63;5307088;26;32326;-85
2023/03/23 00:16:33;;;;;;;2.50;1.10;;;;;;;9.53;56.03;99800.81;5290404;26;32833;-85
2023/03/23 00:19:08;;;;;;;5.60;2.80;;;;;;;9.47;56.54;99796.63;5288319;26;33919;-85
2023/03/23 00:21:38;;;;;;;2.80;2.35;;;;;;;9.38;56.80;99792.56;5307262;26;33932;-85
2023/03/23 00:24:17;;;;;;;1.42;1.40;;;;;;;9.39;56.62;99799.56;5288358;26;33128;-86
2023/03/23 00:26:46;;;;;;;1.60;1.50;;;;;;;9.28;56.84;99791.22;5306118;26;32718;-84
2023/03/23 00:29:16;;;;;;;1.98;1.87;;;;;;;9.43;56.37;99798.53;5307193;26;33730;-84
2023/03/23 00:31:46;;;;;;;2.17;1.37;;;;;;;9.38;56.62;99791.72;5288440;26;32707;-85
2023/03/23 00:34:19;;;;;;;0.65;0.65;;;;;;;9.40;56.41;99789.88;5271422;26;32841;-84
2023/03/23 00:36:56;;;;;;;2.60;2.00;;;;;;;9.45;56.40;99783.53;5290538;26;34444;-85
2023/03/23 00:39:25;;;;;;;1.75;1.37;;;;;;;9.19;57.16;99789.78;5272572;26;34378;-85
2023/03/23 00:42:00;;;;;;;3.83;1.98;;;;;;;9.32;56.81;99786.69;5308039;26;33717;-85
2023/03/23 00:44:30;;;;;;;5.60;2.40;;;;;;;9.33;56.52;99788.41;5291112;26;32320;-85
2023/03/23 00:46:58;;;;;;;0.88;0.82;;;;;;;9.25;56.37;99783.41;5326451;26;33187;-86
2023/03/23 00:49:25;;;;;;;5.70;2.80;;;;;;;9.16;56.55;99786.41;5271773;26;34081;-86
2023/03/23 00:51:54;;;;;;;3.92;1.37;;;;;;;9.02;56.90;99786.06;5271875;26;33499;-85
2023/03/23 00:54:22;;;;;;;3.25;1.05;;;;;;;8.92;57.36;99777.66;5308090;26;33465;-85
2023/03/23 00:56:51;;;;;;;0.70;0.68;;;;;;;9.04;57.06;99786.88;5307526;26;32934;-84
2023/03/23 00:59:18;;;;;;;2.62;2.42;;;;;;;8.88;57.23;99781.34;5288509;26;32995;-86
2023/03/23 01:01:46;;;;;;;3.17;2.67;;;;;;;8.95;57.05;99782.81;5306811;26;34231;-86
2023/03/23 01:04:15;;;;;;;2.45;2.17;;;;;;;8.92;57.39;99781.13;5307188;26;33094;-86
2023/03/23 01:06:44;;;;;;;0.98;0.98;;;;;;;8.85;57.60;99782.31;5288471;26;34390;-85
2023/03/23 01:09:14;;;;;;;10.68;3.00;;;;;;;8.86;57.73;99776.09;5270430;26;33454;-85
2023/03/23 01:11:42;;;;;;;2.22;1.45;;;;;;;8.94;57.45;99766.16;5288130;26;34575;-85
2023/03/23 01:14:10;;;;;;;1.80;1.70;;;;;;;8.96;57.32;99769.59;5287589;26;34152;-85
2023/03/23 01:16:37;;;;;;;1.30;1.20;;;;;;;8.98;57.14;99770.41;5306140;26;33245;-85
2023/03/23 01:19:04;;;;;;;2.33;2.15;;;;;;;8.86;57.42;99772.63;5305155;26;32782;-86
2023/03/23 01:21:31;;;;;;;0.95;0.95;;;;;;;8.86;57.35;99768.22;5323660;26;32666;-86
2023/03/23 01:23:57;;;;;;;3.20;2.05;;;;;;;8.81;57.34;99767.53;5304576;26;33492;-85
2023/03/23 01:26:27;;;;;;;1.30;1.20;;;;;;;8.75;57.78;99765.13;5286677;26;32943;-86
2023/03/23 01:28:53;;;;;;;8.65;1.58;;;;;;;8.79;57.68;99756.22;5305662;26;33547;-86
2023/03/23 01:31:22;;;;;;;0.90;0.90;;;;;;;8.80;57.55;99763.19;5286671;26;33308;-86
2023/03/23 01:33:50;;;;;;;0.80;0.77;;;;;;;8.74;57.68;99758.16;5268894;26;33588;-86
2023/03/23 01:36:32;;;;;;;0.98;0.85;;;;;;;8.63;57.95;99760.31;5287081;26;32337;-87
2023/03/23 01:39:03;;;;;;;;;;;;;;;8.75;57.72;99765.13;5288441;26;33057;-84
2023/03/23 01:41:31;;;;;;;0.10;0.10;;;;;;;8.68;57.69;99763.63;5305744;26;34264;-84
2023/03/23 01:44:17;;;;;;;0.55;0.55;;;;;;;8.72;57.52;99759.97;5306148;26;34382;-84
2023/03/23 01:46:44;;;;;;;4.57;0.82;;;;;;;8.72;57.42;99745.03;5305226;26;33430;-84
2023/03/23 01:49:20;;;;;;;2.90;1.92;;;;;;;8.63;57.80;99760.31;5287135;26;33175;-84
2023/03/23 01:51:53;;;;;;;3.12;1.48;;;;;;;8.73;57.47;99756.41;5305186;26;33408;-83
2023/03/23 01:54:21;;;;;;;0.17;0.17;;;;;;;8.52;57.71;99751.94;5287791;26;32105;-84
2023/03/23 01:56:56;;;;;;;0.62;0.62;;;;;;;8.49;57.64;99752.91;5287535;26;32152;-85
2023/03/23 01:59:25;;;;;;;0.80;0.68;;;;;;;8.49;57.65;99760.78;5287179;26;33801;-84
2023/03/23 02:01:55;;;;;;;0.90;0.63;;;;;;;8.49;57.74;99752.91;5287215;26;32696;-84
2023/03/23 02:04:24;;;;;;;0.75;0.75;;;;;;;8.56;57.54;99753.56;5305027;26;34122;-84
2023/03/23 02:06:52;;;;;;;0.35;0.35;;;;;;;8.57;57.40;99742.09;5305039;26;33536;-83
2023/03/23 02:09:21;;;;;;;1.33;1.25;;;;;;;8.60;57.21;99748.13;5305234;26;33837;-85
2023/03/23 02:11:52;;;;;;;0.22;0.22;;;;;;;8.52;57.40;99752.81;5302514;26;34728;-85
2023/03/23 02:14:19;;;;;;;0.13;0.13;;;;;;;8.49;57.65;99757.31;5266423;26;33375;-85
2023/03/23 02:16:56;;;;;;;0.62;0.62;;;;;;;8.49;57.49;99757.31;5304000;26;34535;-85
2023/03/23 02:19:41;;;;;;;1.23;1.17;;;;;;;8.38;57.83;99755.91;5287455;26;34545;-85
2023/03/23 02:22:12;;;;;;;0.35;0.35;;;;;;;8.47;57.61;99757.37;5287041;26;33824;-84
2023/03/23 02:25:13;;;;;;;0.50;0.50;;;;;;;8.53;57.22;99758.91;5287057;26;32442;-84
2023/03/23 02:28:09;;;;;;;1.30;1.02;;;;;;;8.33;57.79;99763.09;5303070;26;35349;-85
2023/03/23 02:30:50;;;;;;;0.68;0.68;;;;;;;8.35;57.65;99761.25;5296451;26;33001;-85
2023/03/23 02:33:29;;;;;;;0.70;0.70;;;;;;;8.27;57.80;99767.72;5305306;26;34426;-85
2023/03/23 02:36:34;;;;;;;0.75;0.75;;;;;;;8.28;57.58;99765.03;5286593;26;32046;-85
2023/03/23 02:39:12;;;;;;;0.65;0.55;;;;;;;8.27;57.43;99772.97;5304825;26;34891;-85
2023/03/23 02:42:05;;;;;;;1.35;0.95;;;;;;;8.14;58.01;99767.28;5268277;26;33297;-85
2023/03/23 02:44:37;;;;;;;1.67;1.50;;;;;;;8.19;57.79;99770.59;5316675;26;32749;-83
2023/03/23 02:47:12;;;;;;;0.70;0.70;;;;;;;8.07;58.27;99765.75;5287037;26;31842;-83
2023/03/23 02:49:40;;;;;;;0.00;0.00;;;;;;;8.18;57.95;99763.63;5268376;26;33279;-83
2023/03/23 02:52:14;;;;;;;0.28;0.28;;;;;;;8.14;57.86;99769.91;5304651;26;34261;-86
2023/03/23 02:54:44;;;;;;;0.25;0.17;;;;;;;8.08;58.13;99773.59;5287944;26;32836;-86
2023/03/23 02:57:11;;;;;;;5.53;0.68;;;;;;;8.03;58.19;99769.41;5305014;26;32676;-86
2023/03/23 02:59:40;;;;;;;0.50;0.50;;;;;;;8.06;57.95;99770.16;5304407;26;32852;-85
2023/03/23 03:02:16;;;;;;;0.10;0.10;;;;;;;7.86;58.79;99773.44;5265703;27;34553;-85
2023/03/23 03:04:48;;;;;;;0.73;0.73;;;;;;;8.03;58.48;99772.03;5304475;26;34152;-83
2023/03/23 03:07:24;;;;;;;1.20;0.75;;;;;;;8.07;58.30;99774.53;5268897;26;32138;-84
2023/03/23 03:09:59;;;;;;;0.45;0.45;;;;;;;8.09;58.23;99772.69;5286713;26;32359;-83
2023/03/23 03:12:41;;;;;;;1.33;1.27;;;;;;;8.08;58.36;99770.13;5284315;26;33014;-83
2023/03/23 03:15:26;;;;;;;0.82;0.47;;;;;;;8.09;58.25;99775.31;5304866;26;33949;-84
2023/03/23 03:18:12;;;;;;;0.82;0.77;;;;;;;8.09;58.23;99769.19;5287237;26;34119;-85
2023/03/23 03:20:53;;;;;;;0.45;0.45;;;;;;;8.11;58.18;99772.63;5286237;26;34039;-84
2023/03/23 03:23:22;;;;;;;1.05;1.00;;;;;;;8.07;58.25;99766.63;5287077;26;32671;-85
2023/03/23 03:25:50;;;;;;;0.30;0.30;;;;;;;8.09;58.15;99771.81;5286789;26;34179;-85
2023/03/23 03:28:21;;;;;;;0.65;0.65;;;;;;;8.06;58.06;99775.41;5304781;26;32101;-84
2023/03/23 03:31:00;;;;;;;0.55;0.55;;;;;;;8.11;57.99;99775.25;5269444;26;33868;-84
2023/03/23 03:33:30;;;;;;;0.00;0.00;;;;;;;8.09;57.92;99774.47;5304887;26;33178;-84
2023/03/23 03:36:00;;;;;;;1.62;1.08;;;;;;;8.02;58.00;99780.81;5269261;26;33093;-85
2023/03/23 03:38:28;;;;;;;0.57;0.57;;;;;;;7.98;58.22;99787.13;5286634;26;33580;-84
2023/03/23 03:40:56;;;;;;;0.62;0.62;;;;;;;7.85;58.29;99784.03;5304348;26;32716;-85
2023/03/23 03:43:25;;;;;;;0.37;0.32;;;;;;;7.89;58.18;99773.34;5265203;26;34725;-85
2023/03/23 03:45:52;;;;;;;0.88;0.88;;;;;;;7.80;58.28;99781.53;5305130;26;33897;-85
2023/03/23 03:48:19;;;;;;;0.00;0.00;;;;;;;7.81;58.24;99782.41;5286206;26;32649;-85
2023/03/23 03:50:47;;;;;;;0.20;0.20;;;;;;;7.72;58.50;99783.56;5304769;26;34304;-85
2023/03/23 03:53:14;;;;;;;0.10;0.10;;;;;;;7.82;58.36;99792.84;5286199;26;32778;-85
2023/03/23 03:55:45;;;;;;;0.40;0.40;;;;;;;7.88;58.36;99790.06;5304807;26;34220;-85
2023/03/23 03:58:13;;;;;;;1.35;1.25;;;;;;;7.84;58.29;99787.56;5287347;26;31544;-85
2023/03/23 04:00:41;;;;;;;1.20;0.62;;;;;;;7.89;58.18;99788.28;5322881;26;34204;-85
2023/03/23 04:03:09;;;;;;;1.15;0.82;;;;;;;7.94;57.96;99788.97;5322864;26;33235;-85
2023/03/23 04:05:40;;;;;;;5.20;1.10;;;;;;;7.91;57.91;99791.69;5286844;26;33384;-84
2023/03/23 04:08:07;;;;;;;0.52;0.47;;;;;;;7.85;58.30;99798.03;5304805;26;32976;-84
2023/03/23 04:10:35;;;;;;;0.20;0.20;;;;;;;7.79;58.16;99803.50;5324092;26;33659;-85
2023/03/23 04:13:04;;;;;;;1.25;1.12;;;;;;;7.70;58.62;99799.38;5305570;26;33006;-84
2023/03/23 04:15:35;;;;;;;0.00;0.00;;;;;;;7.76;58.56;99798.31;5306500;26;33801;-84
2023/03/23 04:18:03;;;;;;;0.85;0.65;;;;;;;7.87;58.12;99798.81;5287244;26;32392;-84
2023/03/23 04:20:30;;;;;;;0.20;0.20;;;;;;;7.83;58.09;99799.84;5322213;26;32834;-84
2023/03/23 04:22:57;;;;;;;1.15;1.08;;;;;;;7.66;58.61;99808.28;5323957;26;33893;-84
2023/03/23 04:25:24;;;;;;;1.65;1.48;;;;;;;7.64;58.69;99801.31;5305436;26;33930;-84
2023/03/23 04:27:53;;;;;;;1.45;1.35;;;;;;;7.68;58.50;99795.94;5287261;26;33347;-84
2023/03/23 04:30:27;;;;;;;0.22;0.22;;;;;;;7.72;58.58;99799.31;5287499;26;33879;-85
2023/03/23 04:32:55;;;;;;;0.57;0.57;;;;;;;7.62;58.68;99797.91;5288082;26;33052;-84
2023/03/23 04:35:26;;;;;;;0.10;0.10;;;;;;;7.69;58.59;99799.41;5305017;26;33301;-85
2023/03/23 04:37:56;;;;;;;0.13;0.13;;;;;;;7.75;58.44;99801.88;5286735;26;32731;-85
2023/03/23 04:40:30;;;;;;;0.73;0.73;;;;;;;7.79;58.29;99803.50;5286522;26;33819;-85
2023/03/23 04:43:05;;;;;;;0.17;0.17;;;;;;;7.70;58.47;99799.38;5305146;26;33716;-87
2023/03/23 04:45:33;;;;;;;1.45;0.73;;;;;;;7.69;58.62;99799.41;5321505;26;35301;-87
2023/03/23 04:48:04;;;;;;;0.08;0.08;;;;;;;7.71;58.53;99794.97;5286294;26;33149;-87
2023/03/23 04:50:34;;;;;;;0.60;0.60;;;;;;;7.64;58.72;99801.31;5286800;26;32959;-87
2023/03/23 04:53:05;;;;;;;4.05;1.75;;;;;;;7.71;58.65;99800.25;5266343;27;33153;-87
2023/03/23 04:55:40;;;;;;;0.28;0.28;;;;;;;7.71;58.62;99794.97;5285661;26;33711;-85
2023/03/23 04:58:08;;;;;;;0.57;0.30;;;;;;;7.72;58.57;99801.94;5270533;26;33173;-85
2023/03/23 05:00:49;;;;;;;0.15;0.15;;;;;;;7.72;58.45;99801.09;5290135;26;34559;-85
2023/03/23 05:03:19;;;;;;;0.00;0.00;;;;;;;7.71;58.62;99808.13;5289468;26;33135;-85
2023/03/23 05:05:56;;;;;;;;;;;;;;;7.62;59.07;99800.53;5262799;26;32539;-85
2023/03/23 05:08:25;;;;;;;1.45;1.35;;;;;;;7.75;58.63;99804.50;5300248;26;32202;-85
2023/03/23 05:10:55;;;;;;;0.47;0.47;;;;;;;7.64;59.07;99803.97;5269130;26;33794;-85
2023/03/23 05:13:27;;;;;;;0.90;0.90;;;;;;;7.82;58.48;99808.63;5288057;26;32725;-85
2023/03/23 05:16:03;;;;;;;0.50;0.50;;;;;;;8.00;57.62;99806.31;5306401;26;34629;-85
2023/03/23 05:18:34;;;;;;;1.05;1.00;;;;;;;7.96;57.26;99816.94;5306563;26;33635;-85
2023/03/23 05:21:03;;;;;;;0.65;0.45;;;;;;;7.75;58.25;99817.63;5305799;26;34294;-85
2023/03/23 05:23:39;;;;;;;2.17;1.55;;;;;;;7.70;59.01;99814.28;5287367;26;33162;-84
2023/03/23 05:26:11;;;;;;;0.93;0.85;;;;;;;7.71;59.09;99816.00;5271880;26;33730;-84
2023/03/23 05:28:38;;;;;;;0.57;0.57;;;;;;;7.81;59.07;99814.81;5305041;26;34945;-84
2023/03/23 05:31:18;;;;;;;14.05;2.22;;;;;;;7.94;58.86;99812.66;5305313;26;32680;-84
2023/03/23 05:33:48;;;;;;;0.57;0.57;;;;;;;7.93;59.03;99806.53;5287647;26;34153;-83
2023/03/23 05:36:19;;;;;;;;;;;;;;;7.99;59.06;99818.63;5288816;26;33754;-86
2023/03/23 05:41:35;;;;;;;0.77;0.77;;;;;;;8.12;58.90;99798.03;5324822;26;34597;-85
2023/03/23 05:44:03;;;;;;;0.30;0.30;;;;;;;8.19;59.08;99802.16;5305742;26;34443;-85
2023/03/23 05:46:33;;;;;;;0.57;0.57;;;;;;;8.19;59.42;99797.75;5287738;26;33068;-85
2023/03/23 05:49:02;;;;;;;2.30;2.12;;;;;;;8.31;59.22;99791.22;5288183;26;32503;-85
2023/03/23 05:51:35;;;;;;;0.30;0.30;;;;;;;8.58;58.66;99797.31;5287772;26;33138;-85
2023/03/23 05:54:06;;;;;;;3.60;1.62;;;;;;;8.83;58.35;99799.94;5305406;26;33327;-84
2023/03/23 05:56:48;;;;;;;1.50;1.40;;;;;;;9.13;57.79;99794.44;5267286;26;32802;-84
2023/03/23 05:59:22;;;;;;;0.20;0.20;;;;;;;9.11;58.55;99797.13;5307504;26;34351;-85
2023/03/23 06:01:54;;;;;;;1.37;1.25;;;;;;;9.15;58.85;99792.59;5321503;26;34182;-85
2023/03/23 06:04:24;;;;;;;0.57;0.57;;;;;;;9.11;59.35;99794.47;5286456;26;33083;-85
2023/03/23 06:06:54;;;;;;;3.83;1.90;;;;;;;9.30;59.20;99786.72;5303278;26;33948;-85
2023/03/23 06:09:21;;;;;;;1.37;0.95;;;;;;;9.45;59.01;99788.78;5283876;26;33682;-85
2023/03/23 06:11:51;;;;;;;0.85;0.85;;;;;;;9.55;59.11;99789.28;5266124;26;34813;-84
2023/03/23 06:17:04;;;;;;;2.10;1.70;;;;;;;9.63;59.62;99786.34;5322318;26;34740;-85
2023/03/23 06:19:31;;;;;;;1.35;1.30;;;;;;;9.92;59.30;99787.78;5284415;26;33497;-85
2023/03/23 06:21:59;;;;;;;0.43;0.43;;;;;;;9.97;59.32;99794.59;5264944;26;32592;-84
2023/03/23 06:24:26;;;;;;;2.60;2.40;;;;;;;10.23;59.02;99785.59;5284149;26;35121;-84
2023/03/23 06:26:54;;;;;;;1.75;1.65;;;;;;;10.30;58.88;99788.84;5300855;26;32771;-84
2023/03/23 06:29:21;;;;;;;10.30;1.60;;;;;;;10.61;57.75;99784.88;5283802;26;33223;-84
2023/03/23 06:31:56;;;;;;;1.48;1.37;;;;;;;10.76;57.56;99781.56;5302343;26;32628;-87
2023/03/23 06:34:35;;;;;;;1.87;1.73;;;;;;;10.61;57.77;99777.81;5287367;26;35803;-85
2023/03/23 06:37:05;;;;;;;1.35;1.35;;;;;;;10.62;57.41;99768.12;5287861;26;33446;-86
2023/03/23 06:39:33;;;;;;;2.35;2.15;;;;;;;10.72;57.11;99777.34;5301680;26;33827;-85
2023/03/23 06:42:03;;;;;;;1.92;1.83;;;;;;;10.89;56.24;99780.09;5268050;26;35030;-84
2023/03/23 06:44:34;;;;;;;1.23;1.12;;;;;;;10.77;56.35;99783.28;5288094;26;33346;-85
2023/03/23 06:47:04;;;;;;;0.45;0.45;;;;;;;11.84;52.78;99775.62;5304895;26;33310;-84
2023/03/23 06:49:33;;;;;;;2.43;2.23;;;;;;;12.02;52.39;99777.38;5305222;26;32289;-85
2023/03/23 06:52:03;;;;;;;1.50;1.30;;;;;;;12.07;52.18;99781.59;5287142;26;33918;-85
2023/03/23 06:54:32;;;;;;;1.00;0.90;;;;;;;11.93;52.89;99783.12;5304379;26;34131;-85
2023/03/23 06:57:01;;;;;;;0.43;0.43;;;;;;;12.18;53.15;99785.38;5286418;26;32585;-85
2023/03/23 06:59:31;;;;;;;4.00;1.15;;;;;;;12.52;51.35;99788.97;5285970;26;32115;-84
2023/03/23 07:01:58;;;;;;;1.95;1.23;;;;;;;12.69;51.23;99777.50;5268024;26;33082;-84
2023/03/23 07:04:28;;;;;;;0.95;0.95;;;;;;;12.96;50.73;99780.44;5305302;26;34330;-84
2023/03/23 07:06:57;;;;;;;8.10;1.45;;;;;;;13.17;50.28;99789.06;5305049;26;33770;-84
2023/03/23 07:09:39;;;;;;;1.12;1.02;;;;;;;12.91;51.55;99786.00;5303236;26;33171;-84
2023/03/23 07:14:43;;;;;;;1.05;1.05;;;;;;;13.17;49.95;99778.44;5304377;26;32873;-84
2023/03/23 07:19:57;;;;;;;1.60;1.23;;;;;;;13.60;49.30;99784.06;5304320;26;34105;-85
2023/03/23 07:22:26;;;;;;;1.58;1.48;;;;;;;14.01;48.48;99787.84;5248777;26;33460;-84
2023/03/23 07:24:56;;;;;;;1.95;1.30;;;;;;;13.83;49.12;99778.28;5298487;26;33243;-84
2023/03/23 07:30:08;;;;;;;3.50;2.55;;;;;;;14.28;48.63;99795.13;5300520;27;32233;-83
2023/03/23 07:32:35;;;;;;;1.73;1.50;;;;;;;14.39;48.30;99787.41;5282260;27;33157;-84
2023/03/23 07:37:38;;;;;;;1.67;1.58;;;;;;;15.25;45.96;99787.47;5282948;27;32635;-85
2023/03/23 07:40:08;;;;;;;8.32;3.17;;;;;;;15.25;46.51;99792.81;5264613;27;33138;-86
2023/03/23 07:42:37;;;;;;;4.53;1.85;;;;;;;15.33;45.58;99790.50;5264076;27;33886;-88
2023/03/23 07:45:08;;;;;;;;;;;;;;;15.64;45.47;99791.25;5284049;27;35316;-88
2023/03/23 07:47:36;;;;;;;4.57;0.37;;;;;;;15.86;42.18;99789.75;5300514;27;33976;-88
2023/03/23 07:50:06;;;;;;;2.10;1.00;;;;;;;15.88;40.88;99784.31;5282344;27;32059;-88
2023/03/23 07:55:17;;;;;;;0.93;0.85;;;;;;;15.86;40.26;99783.56;5265578;27;35208;-88
2023/03/23 07:57:47;;;;;;;1.87;1.48;;;;;;;16.32;39.81;99785.81;5283086;27;32874;-88
2023/03/23 08:00:20;;;;;;;0.98;0.82;;;;;;;16.89;38.93;99788.13;5265763;27;33323;-88
2023/03/23 08:02:59;;;;;;;0.68;0.55;;;;;;;16.53;38.26;99796.84;5247346;27;32786;-88
2023/03/23 08:05:27;;;;;;;1.35;1.35;;;;;;;16.50;39.01;99795.22;5246962;27;34066;-88
2023/03/23 08:08:02;;;;;;;6.43;1.23;;;;;;;16.64;38.88;99781.81;5266113;27;33395;-88
2023/03/23 08:10:33;;;;;;;2.70;1.37;;;;;;;16.94;38.71;99788.66;5300807;27;33182;-88
2023/03/23 08:13:03;;;;;;;1.98;1.40;;;;;;;17.18;38.83;99787.87;5283057;27;32785;-88
2023/03/23 08:15:37;;;;;;;0.98;0.95;;;;;;;17.21;38.05;99787.66;5283432;27;34026;-88
2023/03/23 08:18:11;;;;;;;0.55;0.55;;;;;;;17.36;37.67;99783.91;5317960;27;34568;-88
2023/03/23 08:20:44;;;;;;;0.70;0.70;;;;;;;17.29;38.96;99799.50;5247466;27;31849;-88
2023/03/23 08:23:12;;;;;;;1.58;1.48;;;;;;;17.60;37.45;99791.94;5264943;27;32739;-88
2023/03/23 08:25:45;;;;;;;2.33;1.85;;;;;;;17.71;38.34;99794.69;5247132;27;32998;-90
2023/03/23 08:28:15;;;;;;;1.48;1.37;;;;;;;17.91;37.97;99794.09;5284381;27;33106;-88
2023/03/23 08:30:46;;;;;;;1.95;1.83;;;;;;;18.24;36.21;99797.91;5287595;26;33282;-89
2023/03/23 08:33:16;;;;;;;4.37;1.50;;;;;;;18.10;36.83;99798.94;5269833;26;32565;-89
2023/03/23 08:35:45;;;;;;;2.97;2.20;;;;;;;18.17;36.85;99797.50;5286925;26;34022;-90
2023/03/23 08:38:13;;;;;;;0.50;0.50;;;;;;;18.51;36.46;99800.28;5305215;26;34597;-90
2023/03/23 08:41:01;;;;;;;3.60;1.95;;;;;;;18.33;36.14;99809.72;5326135;26;34173;-90
2023/03/23 08:43:32;;;;;;;1.27;1.17;;;;;;;18.32;37.29;99805.31;5270359;26;33244;-89
2023/03/23 08:46:06;;;;;;;1.25;1.23;;;;;;;18.37;36.61;99809.38;5324671;26;33685;-89
2023/03/23 08:48:38;;;;;;;10.57;1.92;;;;;;;18.61;36.57;99801.31;5289309;26;32645;-89
2023/03/23 08:51:08;;;;;;;3.37;1.73;;;;;;;18.71;36.63;99798.81;5287869;26;32555;-89
2023/03/23 08:56:13;;;;;;;3.25;1.42;;;;;;;18.78;35.79;99799.16;5288785;26;32957;-89
2023/03/23 08:58:51;;;;;;;2.42;1.92;;;;;;;18.75;36.25;99794.87;5289869;26;33285;-89
2023/03/23 09:01:23;;;;;;;1.05;1.00;;;;;;;19.01;35.18;99790.19;5287904;26;33242;-89
2023/03/23 09:03:53;;;;;;;1.98;1.60;;;;;;;19.18;35.17;99800.44;5269611;26;32599;-89
2023/03/23 09:06:33;;;;;;;1.05;0.93;;;;;;;19.34;35.30;99793.84;5288182;26;33680;-89
2023/03/23 09:09:06;;;;;;;2.55;1.92;;;;;;;19.42;35.30;99792.25;5288225;26;32950;-89
2023/03/23 09:11:34;;;;;;;4.70;2.43;;;;;;;19.38;36.18;99797.97;5269945;26;32912;-89
2023/03/23 09:14:04;;;;;;;6.70;1.33;;;;;;;19.42;35.54;99786.91;5287799;26;33270;-89
2023/03/23 09:16:32;;;;;;;3.65;2.42;;;;;;;19.71;34.88;99785.53;5305500;26;34370;-89
2023/03/23 09:19:12;;;;;;;1.67;1.25;;;;;;;19.89;34.56;99784.00;5290156;26;32025;-89
2023/03/23 09:21:42;;;;;;;2.75;1.95;;;;;;;20.26;34.97;99783.62;5305625;26;32686;-89
2023/03/23 09:24:10;;;;;;;1.37;1.17;;;;;;;20.45;34.51;99783.75;5287333;26;32360;-89
2023/03/23 09:26:37;;;;;;;3.90;2.22;;;;;;;20.13;34.03;99787.34;5305113;26;33044;-89
2023/03/23 09:29:13;;;;;;;1.23;1.15;;;;;;;20.15;34.35;99779.16;5289485;26;33565;-90
2023/03/23 09:31:55;;;;;;;1.27;1.17;;;;;;;19.99;34.91;99779.59;5305826;26;33194;-89
2023/03/23 09:34:24;;;;;;;1.52;1.42;;;;;;;20.10;35.10;99779.56;5305971;26;32876;-89
2023/03/23 09:36:52;;;;;;;5.10;3.75;;;;;;;20.55;34.04;99779.34;5286693;26;32749;-89
2023/03/23 09:39:19;;;;;;;2.25;1.98;;;;;;;20.64;34.16;99780.41;5305128;26;34507;-88
2023/03/23 09:42:13;;;;;;;2.97;2.65;;;;;;;20.90;33.15;99770.09;5296367;26;32644;-88
2023/03/23 09:44:55;;;;;;;13.13;1.87;;;;;;;20.99;33.88;99777.34;5287129;26;35295;-89
2023/03/23 09:47:33;;;;;;;3.40;1.15;;;;;;;21.10;33.07;99761.16;5287198;26;33315;-89
2023/03/23 09:50:21;;;;;;;3.35;3.05;;;;;;;21.16;33.66;99762.44;5306287;26;33531;-89
2023/03/23 09:52:52;;;;;;;2.55;2.35;;;;;;;21.23;33.54;99761.78;5278822;26;32559;-89
2023/03/23 09:55:21;;;;;;;;;;;;;;;21.60;32.96;99761.22;5284454;26;34280;-89
2023/03/23 09:58:12;;;;;;;1.10;0.93;;;;;;;21.57;31.79;99749.87;5325235;26;36340;-89
2023/03/23 10:01:10;;;;;;;1.35;1.27;;;;;;;21.72;32.58;99741.25;5287778;26;33309;-88
2023/03/23 10:03:45;;;;;;;;;;;;;;;21.22;32.74;99749.34;5308310;26;34135;-88
2023/03/23 10:06:19;;;;;;;1.30;1.17;;;;;;;21.33;32.61;99753.78;5307944;26;35818;-88
2023/03/23 10:08:52;;;;;;;2.00;0.88;;;;;;;21.45;31.95;99752.66;5305551;26;33843;-89
2023/03/23 10:11:32;;;;;;;4.45;1.20;;;;;;;21.35;33.39;99742.87;5283512;26;33131;-88
2023/03/23 10:14:19;;;;;;;3.60;2.47;;;;;;;21.43;32.89;99746.59;5286716;26;34193;-89
2023/03/23 10:17:05;;;;;;;3.20;1.17;;;;;;;21.42;32.63;99736.00;5286344;26;32810;-89
2023/03/23 10:20:07;;;;;;;17.85;1.30;;;;;;;21.48;33.43;99736.28;5288547;26;34085;-87
2023/03/23 10:22:39;;;;;;;6.18;1.17;;;;;;;21.27;34.29;99723.88;5287795;26;32631;-86
2023/03/23 10:25:11;;;;;;;1.62;1.55;;;;;;;21.77;33.71;99719.34;5269910;26;34764;-85
2023/03/23 10:28:03;;;;;;;1.20;1.10;;;;;;;22.23;31.65;99712.44;5303400;26;33510;-85
2023/03/23 10:30:41;;;;;;;1.75;1.37;;;;;;;22.22;31.87;99716.97;5268638;26;34771;-85
2023/03/23 10:33:18;;;;;;;1.35;1.35;;;;;;;22.21;32.38;99711.72;5286803;26;33450;-88
2023/03/23 10:36:15;;;;;;;3.40;1.87;;;;;;;22.03;31.65;99700.81;5297583;26;32386;-85
2023/03/23 10:38:57;;;;;;;0.70;0.70;;;;;;;21.79;33.19;99698.56;5286882;26;34078;-86
2023/03/23 10:41:24;;;;;;;12.30;1.33;;;;;;;21.59;32.50;99697.69;5305226;26;33262;-87
2023/03/23 10:43:54;;;;;;;0.37;0.37;;;;;;;21.91;32.40;99691.19;5305327;26;34873;-84
2023/03/23 10:46:54;;;;;;;0.90;0.85;;;;;;;22.23;31.70;99691.78;5306513;26;33902;-90
2023/03/23 10:49:34;;;;;;;7.28;0.85;;;;;;;22.15;32.39;99693.47;5305237;26;33238;-87
2023/03/23 10:52:24;;;;;;;1.95;1.20;;;;;;;21.33;31.75;99686.63;5286105;26;33443;-87
2023/03/23 10:54:58;;;;;;;2.80;2.10;;;;;;;21.34;32.21;99688.31;5268700;26;33135;-87
2023/03/23 10:57:31;;;;;;;0.57;0.57;;;;;;;21.63;32.21;99691.06;5304939;26;33544;-88
2023/03/23 11:00:01;;;;;;;0.30;0.30;;;;;;;21.69;31.22;99693.16;5286046;26;34200;-87
2023/03/23 11:05:22;;;;;;;2.17;0.50;;;;;;;22.09;30.08;99692.19;5305327;26;33973;-88
2023/03/23 11:07:57;;;;;;;11.68;2.72;;;;;;;21.99;30.53;99684.12;5285948;26;32697;-88
2023/03/23 11:10:56;;;;;;;0.47;0.47;;;;;;;21.98;31.15;99692.31;5287889;26;33089;-87
2023/03/23 11:13:31;;;;;;;4.75;0.80;;;;;;;22.24;31.20;99684.53;5304657;26;33560;-88
2023/03/23 11:16:00;;;;;;;8.75;0.73;;;;;;;22.44;30.20;99678.12;5286816;26;33940;-88
2023/03/23 11:18:39;;;;;;;14.13;0.55;;;;;;;22.66;29.77;99666.16;5305767;26;33483;-87
2023/03/23 11:21:09;;;;;;;2.17;0.22;;;;;;;22.56;30.27;99678.81;5323034;26;33583;-87
2023/03/23 11:23:39;;;;;;;0.47;0.47;;;;;;;22.55;29.61;99669.06;5268676;26;32681;-88
2023/03/23 11:26:21;;;;;;;0.30;0.20;;;;;;;22.61;29.44;99660.38;5304811;26;33563;-87
2023/03/23 11:29:00;;;;;;;0.85;0.85;;;;;;;22.55;29.60;99658.28;5318946;26;34004;-88
2023/03/23 11:31:35;;;;;;;1.90;0.82;;;;;;;22.02;29.06;99656.09;5284027;26;33376;-87
2023/03/23 11:34:26;;;;;;;5.55;0.98;;;;;;;22.11;29.46;99654.38;5286858;26;33094;-87
2023/03/23 11:37:12;;;;;;;0.20;0.20;;;;;;;21.66;30.48;99671.97;5305193;26;34174;-87
2023/03/23 11:39:57;;;;;;;4.00;1.15;;;;;;;22.14;30.14;99664.91;5286845;26;33450;-87
2023/03/23 11:42:32;;;;;;;0.65;0.65;;;;;;;21.95;29.40;99671.13;5323029;26;33566;-87
2023/03/23 11:45:18;;;;;;;0.20;0.20;;;;;;;22.10;30.28;99664.28;5304870;26;32688;-88
2023/03/23 11:50:34;;;;;;;5.90;2.37;;;;;;;22.40;29.79;99660.56;5287129;26;33514;-88
2023/03/23 11:53:15;;;;;;;36.60;7.12;;;;;;;22.17;30.13;99660.09;5268003;26;32896;-88
2023/03/23 11:55:45;;;;;;;2.30;1.85;;;;;;;22.06;30.76;99651.28;5295309;26;32672;-88
2023/03/23 11:58:21;;;;;;;2.85;0.68;;;;;;;22.42;30.85;99652.38;5286392;26;33491;-87
2023/03/23 12:01:02;;;;;;;3.40;2.47;;;;;;;22.84;30.64;99646.53;5304156;26;33318;-87
2023/03/23 12:03:47;;;;;;;0.00;0.00;;;;;;;22.63;29.81;99647.59;5283893;26;33304;-87
2023/03/23 12:06:26;;;;;;;0.10;0.10;;;;;;;23.03;29.93;99646.47;5303269;26;32522;-88
2023/03/23 12:09:52;;;;;;;0.37;0.37;;;;;;;23.52;31.63;99636.22;5288170;26;33826;-87
2023/03/23 12:12:32;;;;;;;0.10;0.10;;;;;;;23.80;28.01;99638.84;5258849;27;32210;-88
2023/03/23 12:15:41;;;;;;;26.77;11.90;;;;;;;23.43;29.02;99635.28;5318946;26;33821;-86
2023/03/23 12:18:22;;;;;;;4.37;0.60;;;;;;;23.88;28.25;99620.91;5304668;26;34575;-86
2023/03/23 12:21:21;;;;;;;0.98;0.30;;;;;;;24.16;27.61;99608.09;5286211;26;33658;-88
2023/03/23 12:24:13;;;;;;;7.60;0.52;;;;;;;24.27;27.67;99602.44;5286048;26;32035;-88
2023/03/23 12:26:52;;;;;;;0.00;0.00;;;;;;;24.07;28.64;99603.69;5286122;26;33830;-89
2023/03/23 12:29:35;;;;;;;6.70;3.40;;;;;;;24.10;28.92;99608.75;5304079;26;33289;-89
2023/03/23 12:32:17;;;;;;;0.77;0.77;;;;;;;24.23;26.68;99601.06;5287078;26;32793;-89
2023/03/23 12:35:05;;;;;;;52.75;12.57;;;;;;;23.96;27.57;99595.81;5286018;26;32298;-89
2023/03/23 12:38:00;;;;;;;0.60;0.60;;;;;;;24.71;26.24;99579.91;5269755;26;32677;-88